KAL239 RKSI-ZHCC
Flight info
| Callsign | KAL239 |
|---|---|
| Flight time | 2h 5m |
| Altitude | 32000 |
| Route | NOPIK Y697 AGAVO/K0843S0980 A591 IKEKA W4 TAMIX/K0791S0950 B208 NOPIN |
| Aircraft | B77L/H-SDE2FGHIJ1J3J5M1P2RWXYZ/LB1D1 |
Departure
| Time | 2026-04-20 13:30 |
|---|---|
| Airport | Incheon International Airport (RKSI) |
Arrival
| Time | 2026-04-20 15:36 |
|---|---|
| Airport | Zhengzhou Xinzheng International Airport (ZHCC) |
| Time | Latitude | Longitude | Altitude | Speed | Heading |
|---|---|---|---|---|---|
| 2026-04-20 13:14 | 37.46755 | 126.47085 | 35 ft | 0 kts | 144° |
| 2026-04-20 13:16 | 37.46763 | 126.47078 | 35 ft | 2 kts | 144° |
| 2026-04-20 13:17 | 37.46775 | 126.47067 | 35 ft | 2 kts | 144° |
| 2026-04-20 13:17 | 37.46787 | 126.47056 | 35 ft | 2 kts | 144° |
| 2026-04-20 13:17 | 37.46800 | 126.47045 | 35 ft | 2 kts | 149° |
| 2026-04-20 13:17 | 37.46813 | 126.47040 | 35 ft | 2 kts | 180° |
| 2026-04-20 13:18 | 37.46828 | 126.47042 | 35 ft | 2 kts | 203° |
| 2026-04-20 13:18 | 37.46840 | 126.47052 | 35 ft | 2 kts | 227° |
| 2026-04-20 13:18 | 37.46845 | 126.47059 | 35 ft | 1 kts | 235° |
| 2026-04-20 13:18 | 37.46845 | 126.47060 | 35 ft | 0 kts | 235° |
| 2026-04-20 13:20 | 37.46840 | 126.47051 | 35 ft | 3 kts | 234° |
| 2026-04-20 13:20 | 37.46818 | 126.47012 | 35 ft | 7 kts | 234° |
| 2026-04-20 13:20 | 37.46781 | 126.46947 | 35 ft | 11 kts | 234° |
| 2026-04-20 13:20 | 37.46730 | 126.46858 | 35 ft | 13 kts | 234° |
| 2026-04-20 13:21 | 37.46674 | 126.46758 | 35 ft | 14 kts | 234° |
| 2026-04-20 13:21 | 37.46616 | 126.46655 | 35 ft | 14 kts | 233° |
| 2026-04-20 13:21 | 37.46555 | 126.46548 | 35 ft | 15 kts | 234° |
| 2026-04-20 13:21 | 37.46494 | 126.46437 | 35 ft | 15 kts | 234° |
| 2026-04-20 13:22 | 37.46429 | 126.46322 | 35 ft | 16 kts | 234° |
| 2026-04-20 13:22 | 37.46350 | 126.46222 | 35 ft | 16 kts | 217° |
| 2026-04-20 13:22 | 37.46247 | 126.46204 | 35 ft | 14 kts | 190° |
| 2026-04-20 13:22 | 37.46184 | 126.46130 | 35 ft | 12 kts | 234° |
| 2026-04-20 13:23 | 37.46136 | 126.46044 | 35 ft | 12 kts | 234° |
| 2026-04-20 13:23 | 37.46082 | 126.45950 | 35 ft | 13 kts | 234° |
| 2026-04-20 13:23 | 37.46024 | 126.45845 | 35 ft | 15 kts | 234° |
| 2026-04-20 13:23 | 37.45958 | 126.45728 | 35 ft | 16 kts | 234° |
| 2026-04-20 13:24 | 37.45887 | 126.45605 | 35 ft | 17 kts | 234° |
| 2026-04-20 13:24 | 37.45834 | 126.45474 | 35 ft | 16 kts | 266° |
| 2026-04-20 13:24 | 37.45799 | 126.45351 | 35 ft | 15 kts | 236° |
| 2026-04-20 13:24 | 37.45734 | 126.45235 | 35 ft | 17 kts | 234° |
| 2026-04-20 13:25 | 37.45660 | 126.45104 | 35 ft | 19 kts | 234° |
| 2026-04-20 13:25 | 37.45582 | 126.44966 | 35 ft | 19 kts | 234° |
| 2026-04-20 13:25 | 37.45504 | 126.44827 | 35 ft | 19 kts | 233° |
| 2026-04-20 13:25 | 37.45425 | 126.44692 | 35 ft | 19 kts | 235° |
| 2026-04-20 13:26 | 37.45347 | 126.44553 | 35 ft | 19 kts | 233° |
| 2026-04-20 13:26 | 37.45270 | 126.44418 | 35 ft | 18 kts | 234° |
| 2026-04-20 13:26 | 37.45200 | 126.44295 | 35 ft | 16 kts | 234° |
| 2026-04-20 13:26 | 37.45135 | 126.44180 | 35 ft | 16 kts | 234° |
| 2026-04-20 13:27 | 37.45067 | 126.44060 | 35 ft | 17 kts | 234° |
| 2026-04-20 13:27 | 37.44973 | 126.44025 | 35 ft | 15 kts | 146° |
| 2026-04-20 13:27 | 37.44886 | 126.44103 | 35 ft | 14 kts | 144° |
| 2026-04-20 13:27 | 37.44804 | 126.44177 | 35 ft | 14 kts | 144° |
| 2026-04-20 13:28 | 37.44722 | 126.44251 | 35 ft | 14 kts | 144° |
| 2026-04-20 13:28 | 37.44639 | 126.44321 | 35 ft | 15 kts | 144° |
| 2026-04-20 13:28 | 37.44547 | 126.44401 | 35 ft | 15 kts | 151° |
| 2026-04-20 13:28 | 37.44464 | 126.44358 | 35 ft | 14 kts | 234° |
| 2026-04-20 13:29 | 37.44411 | 126.44262 | 35 ft | 12 kts | 234° |
| 2026-04-20 13:29 | 37.44367 | 126.44177 | 35 ft | 8 kts | 256° |
| 2026-04-20 13:29 | 37.44390 | 126.44123 | 35 ft | 0 kts | 324° |
| 2026-04-20 13:29 | 37.44403 | 126.44111 | 35 ft | 10 kts | 324° |
| 2026-04-20 13:30 | 37.44692 | 126.43853 | 35 ft | 94 kts | 324° |
| 2026-04-20 13:30 | 37.45451 | 126.43178 | 37 ft | 172 kts | 322° |
| 2026-04-20 13:30 | 37.46509 | 126.42249 | 797 ft | 189 kts | 321° |
| 2026-04-20 13:30 | 37.47447 | 126.41313 | 2329 ft | 172 kts | 320° |
| 2026-04-20 13:31 | 37.48272 | 126.40287 | 3199 ft | 174 kts | 309° |
| 2026-04-20 13:31 | 37.49021 | 126.39005 | 3855 ft | 189 kts | 309° |
| 2026-04-20 13:31 | 37.49816 | 126.37626 | 4518 ft | 206 kts | 302° |
| 2026-04-20 13:31 | 37.50309 | 126.35877 | 5296 ft | 225 kts | 284° |
| 2026-04-20 13:32 | 37.50441 | 126.33851 | 6045 ft | 243 kts | 280° |
| 2026-04-20 13:32 | 37.50500 | 126.31733 | 7172 ft | 243 kts | 279° |
| 2026-04-20 13:32 | 37.50552 | 126.29642 | 8099 ft | 248 kts | 279° |
| 2026-04-20 13:32 | 37.50603 | 126.27485 | 9142 ft | 248 kts | 278° |
| 2026-04-20 13:33 | 37.50654 | 126.25324 | 10154 ft | 249 kts | 277° |
| 2026-04-20 13:33 | 37.50710 | 126.23111 | 10846 ft | 261 kts | 277° |
| 2026-04-20 13:33 | 37.50724 | 126.20753 | 11399 ft | 281 kts | 271° |
| 2026-04-20 13:33 | 37.50385 | 126.18227 | 12027 ft | 302 kts | 261° |
| 2026-04-20 13:34 | 37.49581 | 126.15677 | 12649 ft | 325 kts | 249° |
| 2026-04-20 13:34 | 37.48329 | 126.13210 | 13316 ft | 343 kts | 242° |
| 2026-04-20 13:34 | 37.46952 | 126.10715 | 14239 ft | 347 kts | 242° |
| 2026-04-20 13:34 | 37.45604 | 126.08217 | 15218 ft | 350 kts | 243° |
| 2026-04-20 13:35 | 37.44252 | 126.05673 | 16194 ft | 351 kts | 243° |
| 2026-04-20 13:35 | 37.42905 | 126.03107 | 17153 ft | 352 kts | 244° |
| 2026-04-20 13:35 | 37.41788 | 126.00395 | 18049 ft | 349 kts | 252° |
| 2026-04-20 13:35 | 37.41031 | 125.97491 | 18848 ft | 349 kts | 261° |
| 2026-04-20 13:36 | 37.40668 | 125.94511 | 19702 ft | 347 kts | 269° |
| 2026-04-20 13:36 | 37.40615 | 125.91528 | 20776 ft | 341 kts | 272° |
| 2026-04-20 13:36 | 37.40601 | 125.88599 | 21754 ft | 336 kts | 272° |
| 2026-04-20 13:36 | 37.40581 | 125.85675 | 22629 ft | 335 kts | 272° |
| 2026-04-20 13:37 | 37.40552 | 125.82722 | 23429 ft | 335 kts | 271° |
| 2026-04-20 13:37 | 37.40519 | 125.79832 | 24178 ft | 335 kts | 272° |
| 2026-04-20 13:37 | 37.40484 | 125.76902 | 24903 ft | 334 kts | 271° |
| 2026-04-20 13:37 | 37.40448 | 125.73990 | 25652 ft | 334 kts | 272° |
| 2026-04-20 13:38 | 37.40411 | 125.71094 | 26376 ft | 335 kts | 271° |
| 2026-04-20 13:38 | 37.40374 | 125.68164 | 27122 ft | 335 kts | 271° |
| 2026-04-20 13:38 | 37.40335 | 125.65248 | 27829 ft | 336 kts | 271° |
| 2026-04-20 13:38 | 37.40295 | 125.62321 | 28516 ft | 337 kts | 271° |
| 2026-04-20 13:39 | 37.40255 | 125.59399 | 29211 ft | 337 kts | 271° |
| 2026-04-20 13:39 | 37.40214 | 125.56447 | 29950 ft | 337 kts | 270° |
| 2026-04-20 13:39 | 37.40172 | 125.53462 | 30582 ft | 340 kts | 270° |
| 2026-04-20 13:39 | 37.40128 | 125.50481 | 31108 ft | 344 kts | 271° |
| 2026-04-20 13:40 | 37.40085 | 125.47496 | 31720 ft | 345 kts | 270° |
| 2026-04-20 13:40 | 37.40039 | 125.44479 | 32131 ft | 345 kts | 270° |
| 2026-04-20 13:40 | 37.39993 | 125.41478 | 32162 ft | 343 kts | 270° |
| 2026-04-20 13:41 | 37.39900 | 125.35510 | 32162 ft | 340 kts | 271° |
| 2026-04-20 13:41 | 37.39804 | 125.29559 | 32197 ft | 341 kts | 270° |
| 2026-04-20 13:42 | 37.39704 | 125.23588 | 32194 ft | 341 kts | 270° |
| 2026-04-20 13:42 | 37.39554 | 125.14703 | 32192 ft | 341 kts | 271° |
| 2026-04-20 13:43 | 37.39448 | 125.08729 | 32191 ft | 340 kts | 271° |
| 2026-04-20 13:43 | 37.39341 | 125.02811 | 32187 ft | 340 kts | 270° |
| 2026-04-20 13:44 | 37.39231 | 124.96881 | 32186 ft | 340 kts | 270° |
| 2026-04-20 13:44 | 37.39117 | 124.90917 | 32185 ft | 342 kts | 271° |
| 2026-04-20 13:45 | 37.39000 | 124.84975 | 32184 ft | 341 kts | 270° |
| 2026-04-20 13:45 | 37.38879 | 124.79005 | 32184 ft | 340 kts | 271° |
| 2026-04-20 13:46 | 37.38756 | 124.73104 | 32181 ft | 340 kts | 271° |
| 2026-04-20 13:46 | 37.38629 | 124.67145 | 32177 ft | 342 kts | 270° |
| 2026-04-20 13:47 | 37.38499 | 124.61183 | 32178 ft | 341 kts | 270° |
| 2026-04-20 13:47 | 37.38366 | 124.55222 | 32182 ft | 345 kts | 270° |
| 2026-04-20 13:48 | 37.38229 | 124.49249 | 32179 ft | 341 kts | 271° |
| 2026-04-20 13:48 | 37.37573 | 124.43324 | 32178 ft | 344 kts | 261° |
| 2026-04-20 13:49 | 37.35875 | 124.37625 | 32176 ft | 356 kts | 252° |
| 2026-04-20 13:49 | 37.33290 | 124.32240 | 32208 ft | 364 kts | 247° |
| 2026-04-20 13:50 | 37.30577 | 124.26862 | 32209 ft | 363 kts | 248° |
| 2026-04-20 13:50 | 37.27885 | 124.21511 | 32212 ft | 364 kts | 248° |
| 2026-04-20 13:51 | 37.25194 | 124.16170 | 32209 ft | 364 kts | 248° |
| 2026-04-20 13:51 | 37.22464 | 124.10819 | 32213 ft | 366 kts | 246° |
| 2026-04-20 13:52 | 37.19620 | 124.05508 | 32207 ft | 368 kts | 246° |
| 2026-04-20 13:52 | 37.16779 | 124.00199 | 32215 ft | 369 kts | 246° |
| 2026-04-20 13:53 | 37.13992 | 123.94825 | 32209 ft | 367 kts | 246° |
| 2026-04-20 13:53 | 37.11230 | 123.89450 | 32217 ft | 369 kts | 247° |
| 2026-04-20 13:54 | 37.08443 | 123.84046 | 32205 ft | 369 kts | 247° |
| 2026-04-20 13:54 | 37.05663 | 123.78667 | 32210 ft | 369 kts | 246° |
| 2026-04-20 13:55 | 37.02879 | 123.73291 | 32206 ft | 369 kts | 247° |
| 2026-04-20 13:55 | 37.00085 | 123.67904 | 32204 ft | 371 kts | 247° |
| 2026-04-20 13:56 | 36.97273 | 123.62490 | 32208 ft | 372 kts | 246° |
| 2026-04-20 13:56 | 36.94463 | 123.57091 | 32205 ft | 372 kts | 246° |
| 2026-04-20 13:57 | 36.91649 | 123.51691 | 32208 ft | 374 kts | 246° |
| 2026-04-20 13:57 | 36.88819 | 123.46272 | 32198 ft | 373 kts | 247° |
| 2026-04-20 13:58 | 36.86468 | 123.40643 | 32201 ft | 366 kts | 257° |
| 2026-04-20 13:58 | 36.85229 | 123.34541 | 32198 ft | 357 kts | 266° |
| 2026-04-20 13:59 | 36.85138 | 123.28355 | 32225 ft | 357 kts | 275° |
| 2026-04-20 13:59 | 36.86152 | 123.22338 | 32226 ft | 357 kts | 284° |
| 2026-04-20 14:00 | 36.87672 | 123.16458 | 32222 ft | 358 kts | 284° |
| 2026-04-20 14:00 | 36.89138 | 123.10543 | 32219 ft | 358 kts | 283° |
| 2026-04-20 14:01 | 36.90581 | 123.04591 | 32220 ft | 357 kts | 283° |
| 2026-04-20 14:01 | 36.92006 | 122.98664 | 32217 ft | 357 kts | 283° |
| 2026-04-20 14:02 | 36.93421 | 122.92756 | 32216 ft | 357 kts | 283° |
| 2026-04-20 14:02 | 36.94835 | 122.86832 | 32218 ft | 357 kts | 283° |
| 2026-04-20 14:03 | 36.96246 | 122.80902 | 32215 ft | 357 kts | 284° |
| 2026-04-20 14:03 | 36.97655 | 122.74972 | 32211 ft | 357 kts | 283° |
| 2026-04-20 14:04 | 36.99065 | 122.69018 | 32212 ft | 358 kts | 284° |
| 2026-04-20 14:04 | 37.00475 | 122.63049 | 32209 ft | 358 kts | 284° |
| 2026-04-20 14:05 | 37.01886 | 122.57062 | 32206 ft | 358 kts | 284° |
| 2026-04-20 14:05 | 37.03282 | 122.51129 | 32210 ft | 358 kts | 283° |
| 2026-04-20 14:06 | 37.04684 | 122.45149 | 32205 ft | 358 kts | 284° |
| 2026-04-20 14:06 | 37.06152 | 122.39143 | 32209 ft | 361 kts | 287° |
| 2026-04-20 14:07 | 37.08456 | 122.33525 | 32222 ft | 364 kts | 296° |
| 2026-04-20 14:07 | 37.11800 | 122.28617 | 32225 ft | 379 kts | 308° |
| 2026-04-20 14:08 | 37.15387 | 122.23904 | 32240 ft | 376 kts | 298° |
| 2026-04-20 14:08 | 37.17985 | 122.18313 | 32231 ft | 364 kts | 290° |
| 2026-04-20 14:09 | 37.20005 | 122.12572 | 32225 ft | 362 kts | 291° |
| 2026-04-20 14:09 | 37.22143 | 122.06871 | 32229 ft | 363 kts | 288° |
| 2026-04-20 14:10 | 37.23929 | 122.00924 | 32226 ft | 361 kts | 285° |
| 2026-04-20 14:10 | 37.25525 | 121.95023 | 32209 ft | 357 kts | 285° |
| 2026-04-20 14:11 | 37.27084 | 121.89054 | 32214 ft | 359 kts | 285° |
| 2026-04-20 14:11 | 37.28626 | 121.83083 | 32203 ft | 357 kts | 285° |
| 2026-04-20 14:12 | 37.30144 | 121.77174 | 32213 ft | 359 kts | 285° |
| 2026-04-20 14:12 | 37.31682 | 121.71165 | 32207 ft | 360 kts | 284° |
| 2026-04-20 14:13 | 37.33203 | 121.65207 | 32198 ft | 358 kts | 285° |
| 2026-04-20 14:13 | 37.34729 | 121.59213 | 32198 ft | 358 kts | 285° |
| 2026-04-20 14:14 | 37.36240 | 121.53266 | 32194 ft | 357 kts | 285° |
| 2026-04-20 14:14 | 37.37743 | 121.47334 | 32195 ft | 358 kts | 284° |
| 2026-04-20 14:15 | 37.39252 | 121.41363 | 32190 ft | 358 kts | 285° |
| 2026-04-20 14:15 | 37.40760 | 121.35388 | 32188 ft | 359 kts | 285° |
| 2026-04-20 14:16 | 37.42268 | 121.29392 | 32224 ft | 359 kts | 284° |
| 2026-04-20 14:16 | 37.43775 | 121.23390 | 32215 ft | 358 kts | 285° |
| 2026-04-20 14:17 | 37.45268 | 121.17430 | 32213 ft | 357 kts | 284° |
| 2026-04-20 14:17 | 37.47095 | 121.11618 | 32212 ft | 359 kts | 288° |
| 2026-04-20 14:18 | 37.48995 | 121.05779 | 32208 ft | 359 kts | 288° |
| 2026-04-20 14:18 | 37.50869 | 120.99927 | 32200 ft | 359 kts | 288° |
| 2026-04-20 14:19 | 37.52718 | 120.94113 | 32199 ft | 361 kts | 288° |
| 2026-04-20 14:19 | 37.54569 | 120.88274 | 32196 ft | 358 kts | 288° |
| 2026-04-20 14:20 | 37.56406 | 120.82462 | 32190 ft | 358 kts | 288° |
| 2026-04-20 14:20 | 37.58247 | 120.76627 | 32191 ft | 359 kts | 288° |
| 2026-04-20 14:21 | 37.60146 | 120.70774 | 32192 ft | 361 kts | 288° |
| 2026-04-20 14:21 | 37.62072 | 120.64944 | 32195 ft | 360 kts | 288° |
| 2026-04-20 14:22 | 37.63962 | 120.59070 | 32190 ft | 357 kts | 285° |
| 2026-04-20 14:22 | 37.65034 | 120.52975 | 32184 ft | 355 kts | 277° |
| 2026-04-20 14:23 | 37.64991 | 120.46757 | 32193 ft | 359 kts | 269° |
| 2026-04-20 14:23 | 37.64541 | 120.40524 | 32192 ft | 358 kts | 269° |
| 2026-04-20 14:24 | 37.64092 | 120.34230 | 32193 ft | 359 kts | 268° |
| 2026-04-20 14:24 | 37.63646 | 120.27946 | 32220 ft | 360 kts | 268° |
| 2026-04-20 14:25 | 37.63197 | 120.21664 | 32222 ft | 360 kts | 268° |
| 2026-04-20 14:25 | 37.62744 | 120.15344 | 32224 ft | 362 kts | 267° |
| 2026-04-20 14:26 | 37.62289 | 120.09062 | 32224 ft | 360 kts | 267° |
| 2026-04-20 14:26 | 37.61833 | 120.02811 | 32223 ft | 362 kts | 268° |
| 2026-04-20 14:27 | 37.61369 | 119.96481 | 32212 ft | 361 kts | 267° |
| 2026-04-20 14:27 | 37.60901 | 119.90145 | 32220 ft | 363 kts | 267° |
| 2026-04-20 14:28 | 37.60431 | 119.83851 | 32221 ft | 361 kts | 267° |
| 2026-04-20 14:28 | 37.59958 | 119.77548 | 32217 ft | 362 kts | 268° |
| 2026-04-20 14:29 | 37.59477 | 119.71182 | 32212 ft | 364 kts | 267° |
| 2026-04-20 14:29 | 37.59010 | 119.64880 | 32220 ft | 365 kts | 268° |
| 2026-04-20 14:30 | 37.58584 | 119.58498 | 32209 ft | 363 kts | 268° |
| 2026-04-20 14:30 | 37.58170 | 119.52172 | 32217 ft | 367 kts | 268° |
| 2026-04-20 14:31 | 37.57726 | 119.45803 | 32210 ft | 364 kts | 267° |
| 2026-04-20 14:31 | 37.57280 | 119.39465 | 32211 ft | 365 kts | 268° |
| 2026-04-20 14:32 | 37.56827 | 119.33071 | 32233 ft | 367 kts | 267° |
| 2026-04-20 14:32 | 37.56371 | 119.26675 | 32246 ft | 366 kts | 266° |
| 2026-04-20 14:33 | 37.55913 | 119.20302 | 32237 ft | 368 kts | 266° |
| 2026-04-20 14:33 | 37.55448 | 119.13895 | 32237 ft | 366 kts | 267° |
| 2026-04-20 14:34 | 37.54982 | 119.07497 | 32238 ft | 370 kts | 267° |
| 2026-04-20 14:34 | 37.54507 | 119.01047 | 32231 ft | 369 kts | 266° |
| 2026-04-20 14:35 | 37.54032 | 118.94641 | 32230 ft | 368 kts | 267° |
| 2026-04-20 14:35 | 37.53554 | 118.88225 | 32227 ft | 370 kts | 266° |
| 2026-04-20 14:36 | 37.53072 | 118.81817 | 32231 ft | 370 kts | 266° |
| 2026-04-20 14:36 | 37.52489 | 118.75362 | 32227 ft | 371 kts | 264° |
| 2026-04-20 14:37 | 37.51659 | 118.68946 | 32236 ft | 374 kts | 264° |
| 2026-04-20 14:37 | 37.50848 | 118.62561 | 32225 ft | 372 kts | 264° |
| 2026-04-20 14:38 | 37.50038 | 118.56130 | 32228 ft | 372 kts | 264° |
| 2026-04-20 14:38 | 37.49227 | 118.49687 | 32226 ft | 375 kts | 264° |
| 2026-04-20 14:39 | 37.48414 | 118.43239 | 32224 ft | 373 kts | 263° |
| 2026-04-20 14:39 | 37.47597 | 118.36798 | 32222 ft | 374 kts | 264° |
| 2026-04-20 14:40 | 37.46777 | 118.30349 | 32244 ft | 375 kts | 263° |
| 2026-04-20 14:40 | 37.45950 | 118.23873 | 32245 ft | 376 kts | 263° |
| 2026-04-20 14:41 | 37.45128 | 118.17370 | 32245 ft | 376 kts | 263° |
| 2026-04-20 14:41 | 37.44323 | 118.10902 | 32245 ft | 377 kts | 263° |
| 2026-04-20 14:42 | 37.43509 | 118.04409 | 32237 ft | 375 kts | 263° |
| 2026-04-20 14:42 | 37.42690 | 117.97912 | 32239 ft | 379 kts | 263° |
| 2026-04-20 14:43 | 37.41868 | 117.91419 | 32237 ft | 376 kts | 264° |
| 2026-04-20 14:43 | 37.41036 | 117.84876 | 32234 ft | 378 kts | 263° |
| 2026-04-20 14:44 | 37.40205 | 117.78374 | 32236 ft | 379 kts | 263° |
| 2026-04-20 14:44 | 37.39370 | 117.71865 | 32232 ft | 377 kts | 263° |
| 2026-04-20 14:45 | 37.38532 | 117.65369 | 32233 ft | 378 kts | 263° |
| 2026-04-20 14:45 | 37.37686 | 117.58836 | 32228 ft | 380 kts | 263° |
| 2026-04-20 14:46 | 37.36832 | 117.52272 | 32227 ft | 379 kts | 263° |
| 2026-04-20 14:46 | 37.35974 | 117.45707 | 32229 ft | 381 kts | 264° |
| 2026-04-20 14:47 | 37.34560 | 117.39259 | 32227 ft | 386 kts | 253° |
| 2026-04-20 14:48 | 37.31270 | 117.30005 | 32251 ft | 388 kts | 251° |
| 2026-04-20 14:48 | 37.29046 | 117.23804 | 32252 ft | 389 kts | 251° |
| 2026-04-20 14:49 | 37.26816 | 117.17602 | 32250 ft | 390 kts | 251° |
| 2026-04-20 14:49 | 37.24586 | 117.11414 | 32249 ft | 391 kts | 251° |
| 2026-04-20 14:50 | 37.22340 | 117.05193 | 32249 ft | 391 kts | 250° |
| 2026-04-20 14:50 | 37.20088 | 116.98980 | 32252 ft | 392 kts | 250° |
| 2026-04-20 14:51 | 37.17794 | 116.92667 | 32250 ft | 408 kts | 250° |
| 2026-04-20 14:51 | 37.15400 | 116.86101 | 32244 ft | 414 kts | 250° |
| 2026-04-20 14:52 | 37.13032 | 116.79580 | 32251 ft | 413 kts | 251° |
| 2026-04-20 14:52 | 37.10780 | 116.72910 | 32246 ft | 413 kts | 252° |
| 2026-04-20 14:53 | 37.08541 | 116.66297 | 32247 ft | 414 kts | 252° |
| 2026-04-20 14:53 | 37.06279 | 116.59644 | 32247 ft | 414 kts | 252° |
| 2026-04-20 14:54 | 37.04028 | 116.53039 | 32244 ft | 414 kts | 251° |
| 2026-04-20 14:54 | 37.01749 | 116.46369 | 32242 ft | 416 kts | 251° |
| 2026-04-20 14:55 | 36.99472 | 116.39724 | 32240 ft | 416 kts | 252° |
| 2026-04-20 14:55 | 36.97183 | 116.33059 | 32264 ft | 415 kts | 251° |
| 2026-04-20 14:56 | 36.94882 | 116.26372 | 32263 ft | 417 kts | 251° |
| 2026-04-20 14:56 | 36.92601 | 116.19760 | 32259 ft | 416 kts | 251° |
| 2026-04-20 14:57 | 36.90295 | 116.13089 | 32263 ft | 418 kts | 251° |
| 2026-04-20 14:57 | 36.87971 | 116.06383 | 32257 ft | 418 kts | 251° |
| 2026-04-20 14:58 | 36.85656 | 115.99716 | 32264 ft | 419 kts | 251° |
| 2026-04-20 14:58 | 36.83340 | 115.93060 | 32248 ft | 419 kts | 251° |
| 2026-04-20 14:59 | 36.81002 | 115.86358 | 32254 ft | 419 kts | 251° |
| 2026-04-20 14:59 | 36.78673 | 115.79698 | 32249 ft | 419 kts | 251° |
| 2026-04-20 15:00 | 36.76334 | 115.73029 | 32247 ft | 421 kts | 251° |
| 2026-04-20 15:00 | 36.73982 | 115.66336 | 32231 ft | 420 kts | 251° |
| 2026-04-20 15:00 | 36.72833 | 115.63081 | 32061 ft | 409 kts | 251° |
| 2026-04-20 15:01 | 36.71689 | 115.59841 | 31799 ft | 402 kts | 251° |
| 2026-04-20 15:01 | 36.70564 | 115.56647 | 31532 ft | 407 kts | 251° |
| 2026-04-20 15:01 | 36.69418 | 115.53400 | 31254 ft | 410 kts | 251° |
| 2026-04-20 15:01 | 36.68281 | 115.50184 | 30971 ft | 409 kts | 251° |
| 2026-04-20 15:02 | 36.67139 | 115.46958 | 30694 ft | 408 kts | 250° |
| 2026-04-20 15:02 | 36.65987 | 115.43705 | 30413 ft | 411 kts | 250° |
| 2026-04-20 15:02 | 36.64834 | 115.40455 | 30127 ft | 411 kts | 250° |
| 2026-04-20 15:02 | 36.63681 | 115.37212 | 29847 ft | 409 kts | 251° |
| 2026-04-20 15:03 | 36.62531 | 115.33977 | 29572 ft | 407 kts | 250° |
| 2026-04-20 15:03 | 36.61400 | 115.30798 | 29326 ft | 406 kts | 250° |
| 2026-04-20 15:03 | 36.60255 | 115.27582 | 29083 ft | 404 kts | 250° |
| 2026-04-20 15:03 | 36.59119 | 115.24393 | 28840 ft | 405 kts | 250° |
| 2026-04-20 15:04 | 36.57986 | 115.21216 | 28600 ft | 404 kts | 250° |
| 2026-04-20 15:04 | 36.56830 | 115.18009 | 28340 ft | 403 kts | 248° |
| 2026-04-20 15:04 | 36.55428 | 115.14980 | 28092 ft | 404 kts | 241° |
| 2026-04-20 15:04 | 36.53682 | 115.12231 | 27845 ft | 410 kts | 234° |
| 2026-04-20 15:05 | 36.51640 | 115.09712 | 27588 ft | 412 kts | 231° |
| 2026-04-20 15:05 | 36.49542 | 115.07230 | 27341 ft | 416 kts | 230° |
| 2026-04-20 15:05 | 36.47451 | 115.04763 | 27091 ft | 416 kts | 230° |
| 2026-04-20 15:05 | 36.45353 | 115.02290 | 26835 ft | 414 kts | 230° |
| 2026-04-20 15:06 | 36.43274 | 114.99838 | 26590 ft | 413 kts | 230° |
| 2026-04-20 15:06 | 36.41206 | 114.97403 | 26340 ft | 411 kts | 230° |
| 2026-04-20 15:06 | 36.39116 | 114.94941 | 26085 ft | 412 kts | 230° |
| 2026-04-20 15:06 | 36.37088 | 114.92412 | 25834 ft | 406 kts | 235° |
| 2026-04-20 15:07 | 36.35408 | 114.89634 | 25758 ft | 401 kts | 243° |
| 2026-04-20 15:07 | 36.33974 | 114.86666 | 25757 ft | 401 kts | 244° |
| 2026-04-20 15:07 | 36.32558 | 114.83667 | 25752 ft | 401 kts | 244° |
| 2026-04-20 15:07 | 36.31149 | 114.80685 | 25751 ft | 400 kts | 245° |
| 2026-04-20 15:08 | 36.29747 | 114.77719 | 25741 ft | 400 kts | 244° |
| 2026-04-20 15:08 | 36.28340 | 114.74744 | 25743 ft | 400 kts | 244° |
| 2026-04-20 15:08 | 36.26910 | 114.71763 | 25745 ft | 401 kts | 244° |
| 2026-04-20 15:08 | 36.25470 | 114.68820 | 25742 ft | 400 kts | 243° |
| 2026-04-20 15:09 | 36.24034 | 114.65890 | 25739 ft | 400 kts | 243° |
| 2026-04-20 15:09 | 36.22572 | 114.62907 | 25737 ft | 403 kts | 244° |
| 2026-04-20 15:09 | 36.21111 | 114.59927 | 25739 ft | 402 kts | 243° |
| 2026-04-20 15:09 | 36.19651 | 114.56951 | 25739 ft | 401 kts | 243° |
| 2026-04-20 15:10 | 36.18213 | 114.54022 | 25729 ft | 401 kts | 243° |
| 2026-04-20 15:10 | 36.16766 | 114.51076 | 25732 ft | 402 kts | 244° |
| 2026-04-20 15:10 | 36.15295 | 114.48082 | 25739 ft | 403 kts | 243° |
| 2026-04-20 15:10 | 36.13835 | 114.45116 | 25733 ft | 403 kts | 244° |
| 2026-04-20 15:11 | 36.12378 | 114.42155 | 25735 ft | 404 kts | 243° |
| 2026-04-20 15:11 | 36.10925 | 114.39208 | 25733 ft | 403 kts | 243° |
| 2026-04-20 15:11 | 36.09473 | 114.36262 | 25736 ft | 403 kts | 243° |
| 2026-04-20 15:11 | 36.08006 | 114.33291 | 25743 ft | 403 kts | 243° |
| 2026-04-20 15:12 | 36.06554 | 114.30351 | 25745 ft | 404 kts | 243° |
| 2026-04-20 15:12 | 36.05083 | 114.27377 | 25745 ft | 403 kts | 243° |
| 2026-04-20 15:12 | 36.03626 | 114.24433 | 25744 ft | 404 kts | 243° |
| 2026-04-20 15:12 | 36.02153 | 114.21457 | 25740 ft | 405 kts | 242° |
| 2026-04-20 15:13 | 36.00687 | 114.18501 | 25743 ft | 404 kts | 243° |
| 2026-04-20 15:13 | 35.99224 | 114.15552 | 25742 ft | 404 kts | 243° |
| 2026-04-20 15:13 | 35.97752 | 114.12588 | 25741 ft | 403 kts | 243° |
| 2026-04-20 15:13 | 35.96298 | 114.09663 | 25743 ft | 404 kts | 243° |
| 2026-04-20 15:14 | 35.94815 | 114.06679 | 25742 ft | 406 kts | 243° |
| 2026-04-20 15:14 | 35.93351 | 114.03739 | 25747 ft | 405 kts | 242° |
| 2026-04-20 15:14 | 35.91882 | 114.00792 | 25742 ft | 405 kts | 242° |
| 2026-04-20 15:14 | 35.90400 | 113.97821 | 25745 ft | 404 kts | 242° |
| 2026-04-20 15:15 | 35.88912 | 113.94840 | 25741 ft | 406 kts | 243° |
| 2026-04-20 15:15 | 35.87441 | 113.91894 | 25745 ft | 405 kts | 243° |
| 2026-04-20 15:15 | 35.85963 | 113.88940 | 25747 ft | 406 kts | 243° |
| 2026-04-20 15:15 | 35.84490 | 113.85996 | 25737 ft | 405 kts | 243° |
| 2026-04-20 15:16 | 35.83000 | 113.83019 | 25744 ft | 407 kts | 243° |
| 2026-04-20 15:16 | 35.81527 | 113.80083 | 25741 ft | 406 kts | 243° |
| 2026-04-20 15:16 | 35.80026 | 113.77090 | 25747 ft | 407 kts | 243° |
| 2026-04-20 15:16 | 35.78556 | 113.74163 | 25741 ft | 407 kts | 242° |
| 2026-04-20 15:17 | 35.77048 | 113.71162 | 25745 ft | 408 kts | 243° |
| 2026-04-20 15:17 | 35.75528 | 113.68141 | 25747 ft | 408 kts | 242° |
| 2026-04-20 15:17 | 35.74032 | 113.65170 | 25751 ft | 407 kts | 242° |
| 2026-04-20 15:17 | 35.72532 | 113.62193 | 25747 ft | 406 kts | 242° |
| 2026-04-20 15:18 | 35.71040 | 113.59234 | 25760 ft | 409 kts | 242° |
| 2026-04-20 15:18 | 35.69555 | 113.56297 | 25608 ft | 400 kts | 242° |
| 2026-04-20 15:18 | 35.68096 | 113.53410 | 25184 ft | 393 kts | 242° |
| 2026-04-20 15:18 | 35.66599 | 113.50645 | 24691 ft | 390 kts | 236° |
| 2026-04-20 15:19 | 35.64731 | 113.48212 | 24209 ft | 391 kts | 226° |
| 2026-04-20 15:19 | 35.62542 | 113.46268 | 23763 ft | 392 kts | 216° |
| 2026-04-20 15:19 | 35.60069 | 113.44845 | 23302 ft | 393 kts | 205° |
| 2026-04-20 15:19 | 35.57383 | 113.44007 | 22828 ft | 397 kts | 195° |
| 2026-04-20 15:20 | 35.54649 | 113.43807 | 22354 ft | 400 kts | 184° |
| 2026-04-20 15:20 | 35.51859 | 113.44259 | 21867 ft | 405 kts | 173° |
| 2026-04-20 15:20 | 35.49155 | 113.45263 | 21377 ft | 405 kts | 167° |
| 2026-04-20 15:20 | 35.46477 | 113.46399 | 20877 ft | 403 kts | 166° |
| 2026-04-20 15:21 | 35.43791 | 113.47557 | 20373 ft | 401 kts | 165° |
| 2026-04-20 15:21 | 35.41186 | 113.48702 | 19874 ft | 398 kts | 165° |
| 2026-04-20 15:21 | 35.38580 | 113.49856 | 19378 ft | 396 kts | 165° |
| 2026-04-20 15:21 | 35.35970 | 113.50951 | 18891 ft | 390 kts | 169° |
| 2026-04-20 15:22 | 35.33330 | 113.51543 | 18244 ft | 388 kts | 179° |
| 2026-04-20 15:22 | 35.30599 | 113.51738 | 17539 ft | 390 kts | 181° |
| 2026-04-20 15:22 | 35.27910 | 113.51891 | 16843 ft | 394 kts | 181° |
| 2026-04-20 15:22 | 35.25142 | 113.52046 | 16137 ft | 397 kts | 180° |
| 2026-04-20 15:23 | 35.22392 | 113.52201 | 15414 ft | 399 kts | 180° |
| 2026-04-20 15:23 | 35.19632 | 113.52357 | 14677 ft | 400 kts | 180° |
| 2026-04-20 15:23 | 35.16872 | 113.52514 | 14089 ft | 393 kts | 179° |
| 2026-04-20 15:23 | 35.14159 | 113.52667 | 13395 ft | 385 kts | 179° |
| 2026-04-20 15:24 | 35.11512 | 113.52818 | 12856 ft | 371 kts | 179° |
| 2026-04-20 15:24 | 35.09010 | 113.52960 | 12349 ft | 357 kts | 179° |
| 2026-04-20 15:24 | 35.06576 | 113.53098 | 11897 ft | 343 kts | 178° |
| 2026-04-20 15:24 | 35.04222 | 113.53231 | 11440 ft | 336 kts | 178° |
| 2026-04-20 15:25 | 35.01876 | 113.53363 | 10913 ft | 337 kts | 177° |
| 2026-04-20 15:25 | 34.99523 | 113.53494 | 10437 ft | 336 kts | 176° |
| 2026-04-20 15:25 | 34.97221 | 113.53623 | 10267 ft | 325 kts | 177° |
| 2026-04-20 15:25 | 34.95015 | 113.53747 | 10186 ft | 312 kts | 176° |
| 2026-04-20 15:26 | 34.92861 | 113.53867 | 10072 ft | 300 kts | 176° |
| 2026-04-20 15:26 | 34.90782 | 113.53983 | 9945 ft | 290 kts | 176° |
| 2026-04-20 15:26 | 34.88775 | 113.54095 | 9591 ft | 289 kts | 176° |
| 2026-04-20 15:26 | 34.86737 | 113.54210 | 9183 ft | 288 kts | 176° |
| 2026-04-20 15:27 | 34.84743 | 113.54322 | 8826 ft | 285 kts | 176° |
| 2026-04-20 15:27 | 34.82766 | 113.54433 | 8485 ft | 282 kts | 175° |
| 2026-04-20 15:27 | 34.80812 | 113.54542 | 8147 ft | 279 kts | 175° |
| 2026-04-20 15:27 | 34.78889 | 113.54649 | 7815 ft | 276 kts | 175° |
| 2026-04-20 15:28 | 34.77001 | 113.54755 | 7642 ft | 266 kts | 175° |
| 2026-04-20 15:28 | 34.75178 | 113.54857 | 7575 ft | 254 kts | 175° |
| 2026-04-20 15:28 | 34.73431 | 113.54941 | 7479 ft | 244 kts | 180° |
| 2026-04-20 15:28 | 34.71800 | 113.54532 | 7405 ft | 235 kts | 196° |
| 2026-04-20 15:29 | 34.70248 | 113.53827 | 7066 ft | 241 kts | 199° |
| 2026-04-20 15:29 | 34.68705 | 113.53070 | 6689 ft | 240 kts | 200° |
| 2026-04-20 15:29 | 34.67166 | 113.52314 | 6372 ft | 237 kts | 199° |
| 2026-04-20 15:29 | 34.65613 | 113.51668 | 6066 ft | 229 kts | 184° |
| 2026-04-20 15:30 | 34.64093 | 113.51910 | 5834 ft | 218 kts | 156° |
| 2026-04-20 15:30 | 34.62843 | 113.52914 | 5653 ft | 217 kts | 129° |
| 2026-04-20 15:30 | 34.62028 | 113.54458 | 5324 ft | 217 kts | 115° |
| 2026-04-20 15:30 | 34.61417 | 113.56116 | 5012 ft | 217 kts | 110° |
| 2026-04-20 15:31 | 34.60903 | 113.57841 | 4719 ft | 216 kts | 109° |
| 2026-04-20 15:31 | 34.60372 | 113.59516 | 4442 ft | 214 kts | 111° |
| 2026-04-20 15:31 | 34.59804 | 113.61184 | 4171 ft | 213 kts | 112° |
| 2026-04-20 15:31 | 34.59228 | 113.62841 | 3897 ft | 210 kts | 112° |
| 2026-04-20 15:32 | 34.58671 | 113.64459 | 3638 ft | 207 kts | 112° |
| 2026-04-20 15:32 | 34.58118 | 113.66074 | 3367 ft | 205 kts | 112° |
| 2026-04-20 15:32 | 34.57580 | 113.67647 | 3099 ft | 202 kts | 113° |
| 2026-04-20 15:32 | 34.57059 | 113.69164 | 2863 ft | 188 kts | 113° |
| 2026-04-20 15:33 | 34.56561 | 113.70610 | 2620 ft | 182 kts | 113° |
| 2026-04-20 15:33 | 34.56087 | 113.71997 | 2378 ft | 174 kts | 113° |
| 2026-04-20 15:33 | 34.55637 | 113.73309 | 2162 ft | 161 kts | 113° |
| 2026-04-20 15:33 | 34.55211 | 113.74551 | 1946 ft | 158 kts | 113° |
| 2026-04-20 15:34 | 34.54799 | 113.75759 | 1728 ft | 150 kts | 113° |
| 2026-04-20 15:34 | 34.54407 | 113.76900 | 1522 ft | 142 kts | 113° |
| 2026-04-20 15:34 | 34.54035 | 113.77993 | 1328 ft | 140 kts | 113° |
| 2026-04-20 15:34 | 34.53664 | 113.79080 | 1133 ft | 139 kts | 113° |
| 2026-04-20 15:35 | 34.53290 | 113.80170 | 941 ft | 139 kts | 113° |
| 2026-04-20 15:35 | 34.52914 | 113.81254 | 741 ft | 139 kts | 113° |
| 2026-04-20 15:35 | 34.52540 | 113.82336 | 555 ft | 140 kts | 113° |
| 2026-04-20 15:35 | 34.52191 | 113.83360 | 512 ft | 116 kts | 113° |
| 2026-04-20 15:36 | 34.51951 | 113.84067 | 511 ft | 64 kts | 112° |
| 2026-04-20 15:36 | 34.51830 | 113.84422 | 511 ft | 35 kts | 112° |
| 2026-04-20 15:36 | 34.51778 | 113.84678 | 511 ft | 27 kts | 91° |
| 2026-04-20 15:36 | 34.51791 | 113.84853 | 511 ft | 15 kts | 81° |
| 2026-04-20 15:37 | 34.51852 | 113.84937 | 511 ft | 14 kts | 23° |
| 2026-04-20 15:37 | 34.51951 | 113.84987 | 511 ft | 16 kts | 22° |
| 2026-04-20 15:37 | 34.52064 | 113.85043 | 511 ft | 17 kts | 22° |
| 2026-04-20 15:37 | 34.52175 | 113.85098 | 511 ft | 16 kts | 22° |
| 2026-04-20 15:38 | 34.52278 | 113.85149 | 511 ft | 15 kts | 22° |
| 2026-04-20 15:38 | 34.52374 | 113.85197 | 511 ft | 14 kts | 23° |
| 2026-04-20 15:38 | 34.52467 | 113.85242 | 511 ft | 14 kts | 22° |
| 2026-04-20 15:38 | 34.52546 | 113.85286 | 511 ft | 9 kts | 40° |
| 2026-04-20 15:39 | 34.52548 | 113.85353 | 511 ft | 8 kts | 113° |
| 2026-04-20 15:39 | 34.52533 | 113.85397 | 511 ft | 0 kts | 113° |
| 2026-04-20 15:39 | 34.52532 | 113.85398 | 511 ft | 0 kts | 113° |